Pampa, Texas
Current Conditions -  °F | °C
As of 10:35 PM on Saturday 25 Oct 2014 (Local Time) from KPPA Reporting Station
Clear Clear  
Wind Chill: 67°   Ceiling: Unl
Heat Index: 67°   Visibility: 10mi
Dew Point: 49°   Wind: 15mph
Humidity: 53%   Direction: 190°S
Pressure: 30.06"   Gusts: NA
Location:  35.53°N, 100.95°W
Report Text: KPPA 260335Z AUTO 19013KT 10SM CLR 19/10 A3006 RMK AO2 T01920095 PNO
Loading
Personal Weather Stations






























Interactive Weather Map
Tropical Storm Tracking
New forecast layout! Learn more

10-Day Weather Forecast

Advertisements
Track Severe Weather on mobile